Time;durP1;ratioP1;P1;durP2;ratioP2;P2;SDS_P1;SDS_P2;PMS_P1;PMS_P2;Temp;Humidity;BMP_temperature;BMP_pressure;BME280_temperature;BME280_humidity;BME280_pressure;Samples;Min_cycle;Max_cycle;Signal;HPM_P1;HPM_P2
2021/12/02 00:01:32;;;;;;;1.02;0.43;;;3.30;99.90;;;;;;5098063;28;20059;-74
2021/12/02 00:03:59;;;;;;;0.88;0.52;;;3.20;99.90;;;;;;5066616;28;20036;-71
2021/12/02 00:06:24;;;;;;;0.40;0.30;;;3.20;99.90;;;;;;5085126;28;20064;-74
2021/12/02 00:08:51;;;;;;;3.45;0.40;;;3.10;99.90;;;;;;5067006;28;20028;-72
2021/12/02 00:11:17;;;;;;;5.88;0.35;;;3.20;99.90;;;;;;5066659;28;20024;-74
2021/12/02 00:16:27;;;;;;;1.65;0.35;;;3.10;99.90;;;;;;5088691;28;20032;-73
2021/12/02 00:21:25;;;;;;;0.63;0.38;;;3.10;99.90;;;;;;5088992;28;20078;-73
2021/12/02 00:24:08;;;;;;;0.22;0.22;;;3.10;99.90;;;;;;5090677;28;20051;-73
2021/12/02 00:26:37;;;;;;;6.82;0.47;;;3.10;99.90;;;;;;5090369;28;20099;-73
2021/12/02 00:29:05;;;;;;;3.50;0.65;;;3.10;99.90;;;;;;5108567;28;20024;-73
2021/12/02 00:31:35;;;;;;;0.43;0.28;;;3.20;99.90;;;;;;5108671;28;20046;-71
2021/12/02 00:34:07;;;;;;;0.40;0.35;;;3.20;99.90;;;;;;5090480;28;20062;-73
2021/12/02 00:36:35;;;;;;;5.80;0.40;;;3.20;99.90;;;;;;5108423;28;20028;-73
2021/12/02 00:39:06;;;;;;;1.85;0.50;;;3.20;99.90;;;;;;5090606;28;20032;-73
2021/12/02 00:41:31;;;;;;;1.75;0.30;;;3.20;99.90;;;;;;5108406;28;20376;-75
2021/12/02 00:43:59;;;;;;;5.07;1.02;;;3.10;99.90;;;;;;5090543;28;20087;-75
2021/12/02 00:46:32;;;;;;;6.60;1.55;;;3.10;99.90;;;;;;5108873;28;20038;-73
2021/12/02 00:49:03;;;;;;;2.72;0.47;;;3.20;99.90;;;;;;5108562;28;20024;-76
2021/12/02 00:51:33;;;;;;;7.25;0.65;;;3.20;99.90;;;;;;5108597;28;20024;-74
2021/12/02 00:54:04;;;;;;;11.82;0.68;;;3.30;99.90;;;;;;5108308;28;20032;-73
2021/12/02 00:56:31;;;;;;;3.40;1.25;;;3.30;99.90;;;;;;5108574;28;20058;-73
2021/12/02 00:58:57;;;;;;;0.57;0.30;;;3.40;99.90;;;;;;5102185;28;20071;-72
2021/12/02 01:01:26;;;;;;;1.48;0.60;;;3.40;99.90;;;;;;5070167;28;20016;-74
2021/12/02 01:03:59;;;;;;;6.30;0.93;;;3.50;99.90;;;;;;5087905;28;20039;-73
2021/12/02 01:06:26;;;;;;;5.35;1.08;;;3.50;99.90;;;;;;5070066;28;20028;-71
2021/12/02 01:08:53;;;;;;;1.25;0.55;;;3.50;99.90;;;;;;5070014;28;20055;-73
2021/12/02 01:11:19;;;;;;;1.42;0.65;;;3.50;99.90;;;;;;5087755;28;20047;-73
2021/12/02 01:13:46;;;;;;;3.97;0.55;;;3.50;99.90;;;;;;5069518;28;20072;-74
2021/12/02 01:16:12;;;;;;;16.40;1.08;;;3.60;99.90;;;;;;5087613;28;20050;-74
2021/12/02 01:18:38;;;;;;;8.85;1.48;;;3.60;99.90;;;;;;5087819;28;20033;-74
2021/12/02 01:21:04;;;;;;;7.75;0.88;;;3.60;99.90;;;;;;5087540;28;20035;-75
2021/12/02 01:23:32;;;;;;;5.60;0.85;;;3.50;99.90;;;;;;5087652;28;20033;-76
2021/12/02 01:26:00;;;;;;;14.98;0.80;;;3.50;99.90;;;;;;5069084;28;20047;-75
2021/12/02 01:28:26;;;;;;;2.13;0.73;;;3.50;99.90;;;;;;5087590;28;20063;-74
2021/12/02 01:30:54;;;;;;;1.02;0.30;;;3.50;99.90;;;;;;5086950;28;20055;-73
2021/12/02 01:33:21;;;;;;;1.58;0.68;;;3.50;99.90;;;;;;5087100;28;20076;-76
2021/12/02 01:35:54;;;;;;;6.43;1.58;;;3.40;99.90;;;;;;5069048;28;20154;-74
2021/12/02 01:38:26;;;;;;;17.40;1.20;;;3.40;99.90;;;;;;5087514;28;20573;-73
2021/12/02 01:40:54;;;;;;;10.55;1.92;;;3.40;99.90;;;;;;5087183;28;20756;-75
2021/12/02 01:43:22;;;;;;;4.18;1.27;;;3.40;99.90;;;;;;5087129;28;20173;-74
2021/12/02 01:45:48;;;;;;;3.55;0.80;;;3.40;99.90;;;;;;5087231;28;20099;-74
2021/12/02 01:48:24;;;;;;;4.00;0.45;;;3.40;99.90;;;;;;5087148;28;20032;-72
2021/12/02 01:51:02;;;;;;;3.17;0.98;;;3.40;99.90;;;;;;5087186;28;20082;-74
2021/12/02 01:53:32;;;;;;;3.65;1.25;;;3.50;99.90;;;;;;5087163;28;20104;-75
2021/12/02 01:56:16;;;;;;;2.35;0.52;;;3.50;99.90;;;;;;5087111;28;20074;-72
2021/12/02 01:58:47;;;;;;;0.90;0.50;;;3.50;99.90;;;;;;5086962;28;20031;-73
2021/12/02 02:01:21;;;;;;;0.90;0.55;;;3.40;99.90;;;;;;5068720;28;20040;-73
2021/12/02 02:03:48;;;;;;;2.28;0.25;;;3.40;99.90;;;;;;5086890;28;20047;-74
2021/12/02 02:06:15;;;;;;;4.47;0.80;;;3.40;99.90;;;;;;5068713;28;20033;-73
2021/12/02 02:08:45;;;;;;;3.38;0.60;;;3.40;99.90;;;;;;5086633;28;20025;-75
2021/12/02 02:11:11;;;;;;;2.35;0.55;;;3.40;99.90;;;;;;5068645;28;20495;-74
2021/12/02 02:13:37;;;;;;;4.30;0.45;;;3.40;99.90;;;;;;5086372;28;20059;-74
2021/12/02 02:16:04;;;;;;;2.78;0.57;;;3.40;99.90;;;;;;5068731;28;20036;-74
2021/12/02 02:18:29;;;;;;;0.55;0.20;;;3.40;99.90;;;;;;5086738;28;20032;-75
2021/12/02 02:21:02;;;;;;;1.85;0.50;;;3.40;99.90;;;;;;5086756;28;20516;-74
2021/12/02 02:23:31;;;;;;;0.30;0.30;;;3.40;99.90;;;;;;5068602;28;20048;-75
2021/12/02 02:25:58;;;;;;;1.65;0.43;;;3.40;99.90;;;;;;5068247;28;20067;-76
2021/12/02 02:28:24;;;;;;;2.80;0.68;;;3.40;99.90;;;;;;5086530;28;20029;-75
2021/12/02 02:30:50;;;;;;;4.68;1.20;;;3.30;99.90;;;;;;5067838;28;20032;-73
2021/12/02 02:33:18;;;;;;;0.40;0.22;;;3.20;99.90;;;;;;5085875;28;20079;-75
2021/12/02 02:35:45;;;;;;;5.10;0.65;;;3.20;99.90;;;;;;5085035;28;20035;-75
2021/12/02 02:38:11;;;;;;;8.60;0.63;;;3.20;99.90;;;;;;5086160;28;20024;-75
2021/12/02 02:40:41;;;;;;;8.18;1.42;;;3.20;99.90;;;;;;5085952;28;20032;-75
2021/12/02 02:43:09;;;;;;;6.13;0.60;;;3.20;99.90;;;;;;5085807;28;20016;-75
2021/12/02 02:45:36;;;;;;;3.03;1.00;;;3.20;99.90;;;;;;5068040;28;20028;-75
2021/12/02 02:48:02;;;;;;;0.68;0.63;;;3.30;99.90;;;;;;5085816;28;20135;-77
2021/12/02 02:50:32;;;;;;;7.65;1.13;;;3.30;99.90;;;;;;5067827;28;20033;-75
2021/12/02 02:53:07;;;;;;;1.38;0.70;;;3.30;99.90;;;;;;5085829;28;20042;-76
2021/12/02 02:55:34;;;;;;;5.00;0.80;;;3.30;99.90;;;;;;5067693;28;20082;-74
2021/12/02 03:01:10;;;;;;;0.60;0.60;;;3.30;99.90;;;;;;5023654;28;20037;-73
2021/12/02 03:03:48;;;;;;;3.03;1.20;;;3.30;99.90;;;;;;5076210;28;20044;-75
2021/12/02 03:17:32;;;;;;;2.08;0.85;;;3.10;99.90;;;;;;5077095;28;20040;-77
2021/12/02 03:19:59;;;;;;;2.35;0.45;;;3.10;99.90;;;;;;5085433;28;20464;-76
2021/12/02 03:22:25;;;;;;;2.22;0.50;;;3.10;99.90;;;;;;5085368;28;20025;-73
2021/12/02 03:24:51;;;;;;;1.48;0.35;;;3.00;99.90;;;;;;5085319;28;20043;-75
2021/12/02 03:27:17;;;;;;;2.38;0.55;;;3.00;99.90;;;;;;5066952;28;20111;-74
2021/12/02 03:29:42;;;;;;;6.47;1.38;;;2.90;99.90;;;;;;5084686;28;20028;-73
2021/12/02 03:32:10;;;;;;;1.40;0.57;;;2.90;99.90;;;;;;5063501;28;20079;-74
2021/12/02 03:34:37;;;;;;;4.38;0.77;;;2.90;99.90;;;;;;5063453;28;20039;-75
2021/12/02 03:37:04;;;;;;;4.40;0.45;;;2.90;99.90;;;;;;5064806;28;20024;-74
2021/12/02 03:39:29;;;;;;;6.97;0.82;;;2.90;99.90;;;;;;5065070;28;20069;-73
2021/12/02 03:41:56;;;;;;;6.68;0.73;;;2.90;99.90;;;;;;5063613;28;20369;-75
2021/12/02 03:44:23;;;;;;;3.25;0.85;;;3.00;99.90;;;;;;5063549;28;20025;-72
2021/12/02 03:46:49;;;;;;;15.18;0.95;;;3.00;99.90;;;;;;5064232;28;20056;-72
2021/12/02 03:49:15;;;;;;;7.78;0.80;;;3.00;99.90;;;;;;5064558;28;20028;-72
2021/12/02 03:51:41;;;;;;;1.25;0.75;;;3.00;99.90;;;;;;5064767;28;20029;-74
2021/12/02 03:54:06;;;;;;;2.42;1.02;;;3.10;99.90;;;;;;5063484;28;20060;-75
2021/12/02 03:56:33;;;;;;;1.27;0.28;;;3.10;99.90;;;;;;5064949;28;20040;-72
2021/12/02 03:59:00;;;;;;;0.28;0.28;;;3.10;99.90;;;;;;5063559;28;20440;-73
2021/12/02 04:01:26;;;;;;;6.40;0.85;;;3.00;99.90;;;;;;5063845;28;20025;-74
2021/12/02 04:03:52;;;;;;;6.22;1.17;;;3.00;99.90;;;;;;5063394;28;20036;-75
2021/12/02 04:06:19;;;;;;;4.25;0.82;;;2.90;99.90;;;;;;5063377;28;20029;-74
2021/12/02 04:09:37;;;;;;;4.10;0.80;;;2.90;99.90;;;;;;5064660;28;20029;-76
2021/12/02 04:11:37;;;;;;;0.43;0.43;;;2.90;99.90;;;;;;5057265;28;20040;-72
2021/12/02 04:16:55;;;;;;;0.63;0.52;;;2.80;99.90;;;;;;5064675;28;20048;-73
2021/12/02 04:19:23;;;;;;;7.57;0.65;;;2.80;99.90;;;;;;5064805;28;20044;-73
2021/12/02 04:21:49;;;;;;;1.40;0.63;;;2.80;99.90;;;;;;5064582;28;20052;-73
2021/12/02 04:24:15;;;;;;;8.27;0.43;;;2.90;99.90;;;;;;5063078;28;20029;-74
2021/12/02 04:26:42;;;;;;;4.32;0.52;;;2.90;99.90;;;;;;5064044;28;20370;-73
2021/12/02 04:29:08;;;;;;;1.35;0.70;;;3.00;99.90;;;;;;5063244;28;20093;-76
2021/12/02 04:31:34;;;;;;;8.77;1.20;;;3.00;99.90;;;;;;5062524;28;20060;-75
2021/12/02 04:34:00;;;;;;;0.20;0.10;;;3.10;99.90;;;;;;5064313;28;20041;-73
2021/12/02 04:36:29;;;;;;;0.85;0.30;;;3.20;99.90;;;;;;5064530;28;20033;-75
2021/12/02 04:38:54;;;;;;;1.50;0.70;;;3.20;99.90;;;;;;5064678;28;20037;-73
2021/12/02 04:41:20;;;;;;;3.65;0.77;;;3.30;99.90;;;;;;5062796;28;20029;-75
2021/12/02 04:43:46;;;;;;;4.38;0.45;;;3.30;99.90;;;;;;5063027;28;20029;-75
2021/12/02 04:46:11;;;;;;;3.20;1.20;;;3.30;99.90;;;;;;5064282;28;20033;-73
2021/12/02 04:48:37;;;;;;;6.68;0.30;;;3.30;99.90;;;;;;5063013;28;20033;-73
2021/12/02 04:51:06;;;;;;;0.40;0.35;;;3.20;99.90;;;;;;5064291;28;20033;-73
2021/12/02 04:53:31;;;;;;;1.55;0.85;;;3.20;99.90;;;;;;5062761;28;20132;-74
2021/12/02 04:55:57;;;;;;;1.98;0.30;;;3.10;99.90;;;;;;5064527;28;20029;-75
2021/12/02 04:58:23;;;;;;;2.63;0.45;;;3.10;99.90;;;;;;5063341;28;20033;-74
2021/12/02 05:00:50;;;;;;;4.63;1.55;;;3.10;99.90;;;;;;5068010;28;20877;-73
2021/12/02 05:03:16;;;;;;;2.53;0.77;;;3.00;99.90;;;;;;5066558;28;20025;-75
2021/12/02 05:05:41;;;;;;;1.88;0.35;;;2.90;99.90;;;;;;5066431;28;20029;-76
2021/12/02 05:08:07;;;;;;;7.10;0.70;;;2.80;99.90;;;;;;5067744;28;20025;-75
2021/12/02 05:10:33;;;;;;;1.83;0.85;;;2.70;99.90;;;;;;5067848;28;20075;-76
2021/12/02 05:13:00;;;;;;;3.90;0.57;;;2.60;99.90;;;;;;5067864;28;20496;-73
2021/12/02 05:15:26;;;;;;;2.05;0.20;;;2.50;99.90;;;;;;5067845;28;20087;-73
2021/12/02 05:17:52;;;;;;;0.98;0.35;;;2.40;99.90;;;;;;5066429;28;20029;-74
2021/12/02 05:20:18;;;;;;;6.03;0.43;;;2.30;99.90;;;;;;5067535;28;20671;-74
2021/12/02 05:22:44;;;;;;;1.10;0.73;;;2.30;99.90;;;;;;5067611;28;20025;-76
2021/12/02 05:25:10;;;;;;;0.30;0.30;;;2.20;99.90;;;;;;5067511;28;20040;-73
2021/12/02 05:27:36;;;;;;;2.17;0.63;;;2.20;99.90;;;;;;5067203;28;20128;-75
2021/12/02 05:30:04;;;;;;;1.35;0.60;;;2.10;99.90;;;;;;5067508;28;20028;-76
2021/12/02 05:32:30;;;;;;;3.80;0.32;;;2.20;99.90;;;;;;5082462;28;20044;-76
2021/12/02 05:34:58;;;;;;;1.30;0.52;;;2.20;99.90;;;;;;5068990;28;20029;-73
2021/12/02 05:37:24;;;;;;;2.75;0.50;;;2.10;99.90;;;;;;5087384;28;20032;-74
2021/12/02 05:39:50;;;;;;;0.47;0.35;;;2.10;99.90;;;;;;5087394;28;20032;-74
2021/12/02 05:42:16;;;;;;;2.00;0.32;;;2.10;99.90;;;;;;5086967;28;20043;-75
2021/12/02 05:44:43;;;;;;;2.45;0.43;;;2.20;99.90;;;;;;5069026;28;20056;-73
2021/12/02 05:47:09;;;;;;;2.70;0.50;;;2.10;99.90;;;;;;5087112;28;20040;-75
2021/12/02 05:49:35;;;;;;;0.20;0.10;;;2.10;99.90;;;;;;5087152;28;20021;-75
2021/12/02 05:52:01;;;;;;;4.45;0.70;;;2.10;99.90;;;;;;5069279;28;20055;-75
2021/12/02 05:54:28;;;;;;;4.57;0.73;;;2.10;99.90;;;;;;5087742;28;20138;-75
2021/12/02 05:56:54;;;;;;;3.33;0.47;;;2.10;99.90;;;;;;5087187;28;20082;-74
2021/12/02 05:59:19;;;;;;;1.20;0.55;;;2.10;99.90;;;;;;5086726;28;20426;-74
2021/12/02 06:01:45;;;;;;;4.28;0.45;;;2.10;99.90;;;;;;5086834;28;20033;-74
2021/12/02 06:04:12;;;;;;;3.05;1.00;;;2.10;99.90;;;;;;5086904;28;20029;-74
2021/12/02 06:06:38;;;;;;;1.33;0.30;;;2.10;99.90;;;;;;5086738;28;20039;-74
2021/12/02 06:09:05;;;;;;;0.57;0.40;;;2.10;99.90;;;;;;5086788;28;20033;-77
2021/12/02 06:11:31;;;;;;;1.13;0.52;;;2.10;99.90;;;;;;5078432;28;20028;-77
2021/12/02 06:13:57;;;;;;;0.30;0.30;;;2.10;99.90;;;;;;5088919;28;20040;-76
2021/12/02 06:16:23;;;;;;;3.83;0.80;;;2.10;99.90;;;;;;5106946;28;20392;-76
2021/12/02 06:18:49;;;;;;;5.47;1.05;;;2.10;99.90;;;;;;5088601;28;20050;-74
2021/12/02 06:21:14;;;;;;;4.32;0.98;;;2.00;99.90;;;;;;5088568;28;20055;-77
2021/12/02 06:23:41;;;;;;;1.83;0.82;;;2.00;99.90;;;;;;5106954;28;20380;-75
2021/12/02 06:26:10;;;;;;;5.45;1.05;;;2.00;99.90;;;;;;5088352;28;20365;-74
2021/12/02 06:28:36;;;;;;;2.63;0.63;;;2.00;99.90;;;;;;5106174;28;20131;-76
2021/12/02 06:31:06;;;;;;;1.33;0.50;;;2.00;99.90;;;;;;5106175;28;20068;-73
2021/12/02 06:33:33;;;;;;;1.65;0.63;;;2.10;99.90;;;;;;5106451;28;20386;-73
2021/12/02 06:35:59;;;;;;;2.25;0.80;;;2.10;99.90;;;;;;5087660;28;20387;-77
2021/12/02 06:38:25;;;;;;;3.22;0.65;;;2.10;99.90;;;;;;5106309;28;20373;-72
2021/12/02 06:40:51;;;;;;;1.90;0.60;;;2.10;99.90;;;;;;5106315;28;20051;-73
2021/12/02 06:43:17;;;;;;;1.15;0.40;;;2.00;99.90;;;;;;5087743;28;20027;-73
2021/12/02 06:45:44;;;;;;;1.60;0.70;;;2.10;99.90;;;;;;5106513;28;20051;-73
2021/12/02 06:48:09;;;;;;;1.13;0.57;;;2.10;99.90;;;;;;5087947;28;20502;-71
2021/12/02 06:50:36;;;;;;;2.72;0.80;;;2.00;99.90;;;;;;5106293;28;20062;-74
2021/12/02 06:53:03;;;;;;;1.95;0.68;;;2.00;99.90;;;;;;5103698;28;20068;-74
2021/12/02 06:55:30;;;;;;;2.40;0.75;;;2.00;99.90;;;;;;5096563;28;20037;-73
2021/12/02 06:57:57;;;;;;;1.23;0.70;;;2.00;99.90;;;;;;5085775;28;20021;-74
2021/12/02 07:00:23;;;;;;;3.45;0.65;;;2.00;99.90;;;;;;5080462;28;20200;-74
2021/12/02 07:02:52;;;;;;;7.18;0.68;;;2.00;99.90;;;;;;5087582;28;20492;-74
2021/12/02 07:05:18;;;;;;;6.30;1.30;;;2.00;99.90;;;;;;5097843;28;20028;-74
2021/12/02 07:07:45;;;;;;;2.92;0.73;;;2.00;99.90;;;;;;5093453;28;20045;-75
2021/12/02 07:10:18;;;;;;;3.25;1.10;;;2.10;99.90;;;;;;5085225;28;20032;-76
2021/12/02 07:12:47;;;;;;;3.10;1.13;;;2.10;99.90;;;;;;5072142;28;20028;-75
2021/12/02 07:15:28;;;;;;;0.65;0.50;;;2.10;99.90;;;;;;5098722;28;20023;-73
2021/12/02 07:17:58;;;;;;;6.35;0.80;;;2.10;99.90;;;;;;5095464;28;20089;-73
2021/12/02 07:20:33;;;;;;;3.75;1.70;;;2.10;99.90;;;;;;5083756;28;20057;-76
2021/12/02 07:23:00;;;;;;;3.78;1.05;;;2.30;99.90;;;;;;5096874;28;20132;-73
2021/12/02 07:25:28;;;;;;;0.68;0.35;;;2.10;99.90;;;;;;5085842;28;20508;-74
2021/12/02 07:27:55;;;;;;;4.97;0.98;;;2.10;99.90;;;;;;5090916;28;20047;-74
2021/12/02 07:30:21;;;;;;;1.38;1.10;;;2.10;99.90;;;;;;5077246;28;20456;-76
2021/12/02 07:32:52;;;;;;;1.10;0.40;;;2.10;99.90;;;;;;5066006;28;20048;-73
2021/12/02 07:35:18;;;;;;;6.55;0.70;;;2.10;99.90;;;;;;5097196;28;20406;-74
2021/12/02 07:37:55;;;;;;;13.10;1.20;;;2.10;99.90;;;;;;5087121;28;20048;-73
2021/12/02 07:40:22;;;;;;;2.10;1.17;;;2.20;99.90;;;;;;5075151;28;20028;-74
2021/12/02 07:42:52;;;;;;;2.72;0.82;;;2.20;99.90;;;;;;5085546;28;20052;-75
2021/12/02 07:45:23;;;;;;;2.03;1.13;;;2.20;99.90;;;;;;5104577;28;20591;-76
2021/12/02 07:47:49;;;;;;;8.68;1.10;;;2.20;99.90;;;;;;5086367;28;20020;-74
2021/12/02 07:50:16;;;;;;;0.77;0.45;;;2.20;99.90;;;;;;5103852;28;20080;-75
2021/12/02 07:52:46;;;;;;;2.22;0.60;;;2.30;99.90;;;;;;5084780;28;20032;-76
2021/12/02 07:55:32;;;;;;;1.25;0.70;;;2.30;99.90;;;;;;5084581;28;20031;-75
2021/12/02 07:57:59;;;;;;;1.17;0.73;;;2.40;99.90;;;;;;5076321;28;20115;-75
2021/12/02 08:00:26;;;;;;;0.88;0.55;;;2.40;99.90;;;;;;5091987;28;20040;-75
2021/12/02 08:02:54;;;;;;;4.53;1.33;;;2.40;99.90;;;;;;5083504;28;20054;-76
2021/12/02 08:05:22;;;;;;;2.83;0.82;;;2.40;99.90;;;;;;5083562;28;20025;-77
2021/12/02 08:07:48;;;;;;;4.63;1.83;;;2.60;99.90;;;;;;5083881;28;20027;-75
2021/12/02 08:10:15;;;;;;;1.00;0.60;;;2.60;99.90;;;;;;5084462;28;20085;-76
2021/12/02 08:12:47;;;;;;;1.38;0.75;;;2.70;99.90;;;;;;5084736;28;20056;-75
2021/12/02 08:15:14;;;;;;;2.08;0.85;;;2.80;99.90;;;;;;5084416;28;20049;-76
2021/12/02 08:17:40;;;;;;;2.03;0.70;;;2.90;99.90;;;;;;5075431;28;20054;-74
2021/12/02 08:20:06;;;;;;;1.60;1.00;;;3.20;99.90;;;;;;5086565;28;20020;-75
2021/12/02 08:22:34;;;;;;;2.38;1.02;;;3.30;99.90;;;;;;5099670;28;20040;-74
2021/12/02 08:25:00;;;;;;;4.20;1.33;;;3.50;99.90;;;;;;5085325;28;20039;-76
2021/12/02 08:27:29;;;;;;;1.98;0.73;;;3.70;99.90;;;;;;5089780;28;20039;-75
2021/12/02 08:29:55;;;;;;;2.90;1.00;;;4.00;99.90;;;;;;5076259;28;20147;-75
2021/12/02 08:32:21;;;;;;;2.00;1.15;;;4.10;99.90;;;;;;5085113;28;20063;-74
2021/12/02 08:34:47;;;;;;;2.83;1.58;;;4.00;99.90;;;;;;5089447;28;20051;-75
2021/12/02 08:37:13;;;;;;;3.33;1.70;;;3.90;99.90;;;;;;5097931;28;20032;-74
2021/12/02 08:39:41;;;;;;;2.33;1.05;;;3.80;99.90;;;;;;5088193;28;20435;-74
2021/12/02 08:42:09;;;;;;;4.20;1.67;;;3.60;99.90;;;;;;5087908;28;20472;-74
2021/12/02 08:44:38;;;;;;;7.32;2.75;;;3.60;99.90;;;;;;5087595;28;20046;-75
2021/12/02 08:47:04;;;;;;;6.93;2.30;;;3.50;99.90;;;;;;5076921;28;20032;-75
2021/12/02 08:49:31;;;;;;;6.82;1.92;;;3.30;99.90;;;;;;5073555;28;20426;-75
2021/12/02 08:51:58;;;;;;;3.83;1.60;;;3.20;99.90;;;;;;5085549;28;20127;-73
2021/12/02 08:54:24;;;;;;;4.05;1.67;;;3.20;99.90;;;;;;5107954;28;20040;-74
2021/12/02 08:56:50;;;;;;;4.72;1.98;;;3.30;99.90;;;;;;5105767;28;20066;-75
2021/12/02 08:59:19;;;;;;;2.40;1.13;;;3.30;99.90;;;;;;5076386;28;20119;-75
2021/12/02 09:01:51;;;;;;;1.60;0.95;;;3.40;99.90;;;;;;5084125;28;20032;-75
2021/12/02 09:04:17;;;;;;;2.40;1.25;;;3.50;99.90;;;;;;5106868;28;20052;-73
2021/12/02 09:06:43;;;;;;;2.92;1.33;;;3.70;99.90;;;;;;5089108;28;20024;-74
2021/12/02 09:09:08;;;;;;;1.42;1.10;;;4.00;99.90;;;;;;5083331;28;20056;-75
2021/12/02 09:11:34;;;;;;;2.13;1.00;;;4.40;99.90;;;;;;5074096;28;20037;-74
2021/12/02 09:14:04;;;;;;;1.95;0.75;;;5.00;99.90;;;;;;5087252;28;20036;-74
2021/12/02 09:16:39;;;;;;;3.97;1.15;;;5.40;99.90;;;;;;5086046;28;20036;-75
2021/12/02 09:19:05;;;;;;;1.13;0.57;;;5.90;99.90;;;;;;5091266;28;20772;-76
2021/12/02 09:21:31;;;;;;;1.05;0.63;;;6.20;99.90;;;;;;5077203;28;20028;-73
2021/12/02 09:23:57;;;;;;;1.48;0.82;;;6.50;99.90;;;;;;5100552;28;20091;-75
2021/12/02 09:26:23;;;;;;;4.88;0.82;;;6.80;99.90;;;;;;5095826;28;20046;-73
2021/12/02 09:28:52;;;;;;;12.98;0.85;;;7.10;99.90;;;;;;5076734;28;20036;-73
2021/12/02 09:31:25;;;;;;;3.72;0.70;;;7.20;99.90;;;;;;5079843;28;20078;-75
2021/12/02 09:33:52;;;;;;;3.95;1.17;;;7.30;99.90;;;;;;5099882;28;20040;-73
2021/12/02 09:36:18;;;;;;;2.00;1.00;;;7.40;99.90;;;;;;5087194;28;20029;-74
2021/12/02 09:38:45;;;;;;;2.67;1.00;;;7.00;99.90;;;;;;5087160;28;20028;-75
2021/12/02 09:41:11;;;;;;;2.10;1.00;;;6.30;99.90;;;;;;5087012;28;20084;-76
2021/12/02 09:43:38;;;;;;;1.67;1.02;;;5.90;99.90;;;;;;5100600;28;20040;-76
2021/12/02 09:46:04;;;;;;;6.03;1.75;;;5.50;99.90;;;;;;5094164;28;20025;-76
2021/12/02 09:48:33;;;;;;;2.88;1.13;;;5.30;99.90;;;;;;5080818;28;20415;-75
2021/12/02 09:51:09;;;;;;;1.88;1.00;;;5.20;99.90;;;;;;5076653;28;20456;-76
2021/12/02 09:53:52;;;;;;;4.05;1.10;;;5.00;99.90;;;;;;5094763;28;20040;-75
2021/12/02 09:56:26;;;;;;;4.88;2.15;;;4.70;99.90;;;;;;5096415;28;20038;-74
2021/12/02 09:58:54;;;;;;;9.43;4.20;;;4.50;99.90;;;;;;5096280;28;20062;-75
2021/12/02 10:01:23;;;;;;;5.78;2.38;;;4.30;99.90;;;;;;5098428;28;21302;-75
2021/12/02 10:04:01;;;;;;;8.40;3.00;;;4.10;99.90;;;;;;5092882;28;20035;-74
2021/12/02 10:06:31;;;;;;;7.22;2.97;;;4.00;99.90;;;;;;5093356;28;20024;-76
2021/12/02 10:09:13;;;;;;;1.52;0.70;;;4.00;99.90;;;;;;5081995;28;20035;-75
2021/12/02 10:11:52;;;;;;;1.15;0.50;;;3.70;99.90;;;;;;5083105;28;20040;-77
2021/12/02 10:14:25;;;;;;;2.95;1.33;;;3.40;99.90;;;;;;5097652;28;20040;-77
2021/12/02 10:17:18;;;;;;;2.13;0.70;;;3.10;99.90;;;;;;5096494;28;20027;-77
2021/12/02 10:23:34;;;;;;;2.17;1.17;;;2.60;99.90;;;;;;5094000;28;20381;-80
2021/12/02 10:26:10;;;;;;;4.93;1.92;;;2.40;99.90;;;;;;5087150;28;20462;-78
2021/12/02 10:28:42;;;;;;;2.17;1.25;;;2.30;99.90;;;;;;5074388;28;20032;-76
2021/12/02 10:31:09;;;;;;;1.40;0.70;;;2.20;99.90;;;;;;5077909;28;20163;-78
2021/12/02 10:33:43;;;;;;;0.13;0.10;;;2.10;99.90;;;;;;5101926;28;20037;-79
2021/12/02 10:36:32;;;;;;;0.43;0.38;;;2.10;99.90;;;;;;5099990;28;20036;-81
2021/12/02 10:39:21;;;;;;;2.38;0.80;;;2.20;99.90;;;;;;5072464;28;20110;-77
2021/12/02 10:42:04;;;;;;;0.20;0.10;;;2.20;99.90;;;;;;5097141;28;20052;-79
2021/12/02 10:44:35;;;;;;;2.05;0.73;;;2.20;99.90;;;;;;5091284;28;20099;-79
2021/12/02 10:47:15;;;;;;;0.50;0.40;;;2.20;99.90;;;;;;5082119;28;20071;-78
2021/12/02 10:49:55;;;;;;;0.57;0.17;;;2.20;99.90;;;;;;5085429;28;20032;-79
2021/12/02 10:52:30;;;;;;;1.85;0.68;;;2.20;99.90;;;;;;5067392;28;20047;-78
2021/12/02 10:55:07;;;;;;;;;;;2.30;99.90;;;;;;5079121;28;20066;-82
2021/12/02 10:58:00;;;;;;;2.80;0.98;;;2.40;99.90;;;;;;5078906;28;19911;-77
2021/12/02 11:00:42;;;;;;;1.30;0.73;;;2.30;99.90;;;;;;5069732;28;20040;-77
2021/12/02 11:03:10;;;;;;;1.90;0.95;;;2.30;99.90;;;;;;5067120;28;20497;-77
2021/12/02 11:05:45;;;;;;;0.90;0.55;;;2.30;99.90;;;;;;5067350;28;20028;-76
2021/12/02 11:08:12;;;;;;;1.10;0.52;;;2.30;99.90;;;;;;5084991;28;20038;-77
2021/12/02 11:10:39;;;;;;;4.97;0.82;;;2.20;99.90;;;;;;5066908;28;20029;-74
2021/12/02 11:13:09;;;;;;;1.65;0.77;;;2.30;99.90;;;;;;5084783;28;20415;-74
2021/12/02 11:15:39;;;;;;;0.75;0.55;;;2.30;99.90;;;;;;5087268;28;20028;-76
2021/12/02 11:18:08;;;;;;;1.55;1.02;;;2.30;99.90;;;;;;5068680;28;20052;-75
2021/12/02 11:20:42;;;;;;;2.63;0.80;;;2.20;99.90;;;;;;5087082;28;20475;-76
2021/12/02 11:23:29;;;;;;;3.40;0.73;;;2.30;99.90;;;;;;5105110;28;20042;-76
2021/12/02 11:26:08;;;;;;;6.25;0.77;;;2.30;99.90;;;;;;5104984;28;20058;-77
2021/12/02 11:28:40;;;;;;;2.72;0.55;;;2.30;99.90;;;;;;5104794;28;20084;-77
2021/12/02 11:31:18;;;;;;;1.85;1.20;;;2.40;99.90;;;;;;5096420;28;20035;-77
2021/12/02 11:33:45;;;;;;;1.65;1.00;;;2.40;99.90;;;;;;5080756;28;20040;-75
2021/12/02 11:36:24;;;;;;;3.42;0.65;;;2.50;99.90;;;;;;5071988;28;20029;-75
2021/12/02 11:38:59;;;;;;;2.85;1.35;;;2.50;99.90;;;;;;5088673;28;20058;-77
2021/12/02 11:41:27;;;;;;;1.35;0.82;;;2.50;99.90;;;;;;5086692;28;20426;-76
2021/12/02 11:43:54;;;;;;;0.88;0.43;;;2.50;99.90;;;;;;5086176;28;20396;-77
2021/12/02 11:46:21;;;;;;;4.28;0.80;;;2.40;99.90;;;;;;5086287;28;20064;-77
2021/12/02 11:48:48;;;;;;;2.20;0.70;;;2.40;99.90;;;;;;5080182;28;20040;-77
2021/12/02 11:51:20;;;;;;;2.22;0.95;;;2.40;99.90;;;;;;5084586;28;20029;-76
2021/12/02 11:53:52;;;;;;;2.42;1.02;;;2.40;99.90;;;;;;5066099;28;20110;-80
2021/12/02 11:56:23;;;;;;;2.55;0.35;;;2.40;99.90;;;;;;5084402;28;20485;-77
2021/12/02 11:58:50;;;;;;;1.05;0.43;;;2.50;99.90;;;;;;5084388;28;20043;-79
2021/12/02 12:01:20;;;;;;;1.02;0.28;;;2.60;99.90;;;;;;5066301;28;20468;-79
2021/12/02 12:04:09;;;;;;;0.82;0.32;;;2.60;99.90;;;;;;5070982;28;20032;-79
2021/12/02 12:06:41;;;;;;;0.88;0.50;;;2.60;99.90;;;;;;5104597;28;20031;-79
2021/12/02 12:09:18;;;;;;;0.52;0.20;;;2.60;99.90;;;;;;5085049;28;20035;-80
2021/12/02 12:11:49;;;;;;;0.25;0.10;;;2.50;99.90;;;;;;5104028;28;20050;-76
2021/12/02 12:14:19;;;;;;;0.40;0.35;;;2.60;99.90;;;;;;5085721;28;20127;-76
2021/12/02 12:16:48;;;;;;;0.30;0.20;;;2.50;99.90;;;;;;5085951;28;20020;-76
2021/12/02 12:19:20;;;;;;;1.70;0.30;;;2.50;99.90;;;;;;5086218;28;20024;-78
2021/12/02 12:22:04;;;;;;;0.47;0.35;;;2.50;99.90;;;;;;5085789;28;20027;-77
2021/12/02 12:24:51;;;;;;;0.77;0.38;;;2.50;99.90;;;;;;5104846;28;20397;-80
2021/12/02 12:27:19;;;;;;;1.13;0.25;;;2.50;99.90;;;;;;5086473;28;20035;-77
2021/12/02 12:30:11;;;;;;;2.13;0.85;;;2.60;99.90;;;;;;5104194;28;20099;-77
2021/12/02 12:38:25;;;;;;;2.58;0.60;;;2.70;99.90;;;;;;5123973;28;20044;-78
2021/12/02 12:40:54;;;;;;;0.68;0.17;;;2.70;99.90;;;;;;5105711;28;20072;-77
2021/12/02 12:43:23;;;;;;;0.43;0.40;;;2.70;99.90;;;;;;5121852;28;20024;-79
2021/12/02 12:45:53;;;;;;;0.47;0.30;;;2.70;99.90;;;;;;5071621;28;20024;-81
2021/12/02 12:48:18;;;;;;;1.17;0.60;;;2.60;99.90;;;;;;5074597;28;20147;-80
2021/12/02 12:50:46;;;;;;;2.55;1.20;;;2.60;99.90;;;;;;5065148;28;20028;-79
2021/12/02 12:53:18;;;;;;;1.05;0.43;;;2.60;99.90;;;;;;5064895;28;20037;-78
2021/12/02 12:55:52;;;;;;;1.05;0.57;;;2.60;99.90;;;;;;5065093;28;20024;-79
2021/12/02 12:59:01;;;;;;;2.72;0.60;;;2.60;99.90;;;;;;5065180;28;20056;-79
2021/12/02 13:02:02;;;;;;;2.60;0.73;;;2.60;99.90;;;;;;5064922;28;20041;-82
2021/12/02 13:04:37;;;;;;;2.22;0.68;;;2.50;99.90;;;;;;5064162;28;20049;-78
2021/12/02 13:07:16;;;;;;;1.95;0.82;;;2.50;99.90;;;;;;5065971;28;20104;-79
2021/12/02 13:09:55;;;;;;;0.93;0.43;;;2.50;99.90;;;;;;5065321;28;20028;-79
2021/12/02 13:12:42;;;;;;;1.75;0.80;;;2.50;99.90;;;;;;5065215;28;20036;-80
2021/12/02 13:15:10;;;;;;;2.35;1.00;;;2.50;99.90;;;;;;5064366;28;20032;-78
2021/12/02 13:17:54;;;;;;;2.72;0.90;;;2.50;99.90;;;;;;5065550;28;20124;-80
2021/12/02 13:20:44;;;;;;;2.65;0.90;;;2.40;99.90;;;;;;5065536;28;20123;-80
2021/12/02 13:23:13;;;;;;;1.25;0.98;;;2.30;99.90;;;;;;5086361;28;20051;-77
2021/12/02 13:25:44;;;;;;;1.80;1.02;;;2.40;99.90;;;;;;5068337;28;20035;-80
2021/12/02 13:28:19;;;;;;;10.10;0.55;;;2.50;99.90;;;;;;5068014;28;20107;-76
2021/12/02 13:30:49;;;;;;;4.57;1.05;;;2.50;99.90;;;;;;5068542;28;20089;-76
2021/12/02 13:33:15;;;;;;;3.47;1.13;;;2.50;99.90;;;;;;5068190;28;20051;-77
2021/12/02 13:35:42;;;;;;;2.92;1.23;;;2.50;99.90;;;;;;5067839;28;20028;-76
2021/12/02 13:38:11;;;;;;;1.88;1.10;;;2.50;99.90;;;;;;5068268;28;20031;-77
2021/12/02 13:40:40;;;;;;;7.32;1.00;;;2.60;99.90;;;;;;5071137;28;20060;-75
2021/12/02 13:43:13;;;;;;;1.42;0.80;;;2.50;99.90;;;;;;5076766;28;20021;-74